Time;durP1;ratioP1;P1;durP2;ratioP2;P2;SDS_P1;SDS_P2;PMS_P1;PMS_P2;Temp;Humidity;BMP_temperature;BMP_pressure;BME280_temperature;BME280_humidity;BME280_pressure;Samples;Min_cycle;Max_cycle;Signal;HPM_P1;HPM_P2
2021/05/09 00:01:45;;;;;;;22.17;6.55;;;;;;;21.76;62.62;100858.69;4968748;28;20138;-65
2021/05/09 00:04:13;;;;;;;21.52;6.60;;;;;;;21.73;62.79;100862.34;4968278;28;20051;-65
2021/05/09 00:06:40;;;;;;;23.92;6.22;;;;;;;21.69;63.28;100857.13;4970225;28;20063;-64
2021/05/09 00:09:07;;;;;;;21.15;6.30;;;;;;;21.68;63.10;100863.41;4968339;28;20178;-64
2021/05/09 00:11:34;;;;;;;18.85;6.93;;;;;;;21.69;63.35;100868.75;4969757;28;20081;-64
2021/05/09 00:14:01;;;;;;;18.70;7.20;;;;;;;21.67;63.39;100864.31;4968317;28;20474;-64
2021/05/09 00:16:29;;;;;;;20.73;5.45;;;;;;;21.68;63.46;100858.03;4969559;28;20062;-64
2021/05/09 00:18:58;;;;;;;20.50;6.55;;;;;;;21.71;63.32;100866.91;4969232;28;20100;-64
2021/05/09 00:21:25;;;;;;;21.48;6.43;;;;;;;21.67;63.60;100865.22;4967691;28;20606;-65
2021/05/09 00:23:52;;;;;;;19.02;7.20;;;;;;;21.54;63.77;100854.84;4970020;28;20060;-64
2021/05/09 00:26:19;;;;;;;20.30;6.15;;;;;;;21.49;64.16;100844.25;4967817;28;20049;-65
2021/05/09 00:28:47;;;;;;;16.50;5.95;;;;;;;21.48;64.33;100845.16;4967834;28;20051;-64
2021/05/09 00:31:14;;;;;;;20.52;6.10;;;;;;;21.42;64.78;100846.22;4968443;28;21729;-65
2021/05/09 00:33:41;;;;;;;23.35;6.72;;;;;;;21.44;64.83;100843.50;4968816;28;20090;-64
2021/05/09 00:36:09;;;;;;;22.17;6.53;;;;;;;21.52;64.36;100846.84;4967448;28;20129;-64
2021/05/09 00:38:37;;;;;;;19.52;6.20;;;;;;;21.51;64.18;100855.84;4963949;28;20127;-64
2021/05/09 00:41:04;;;;;;;24.20;6.43;;;;;;;21.45;64.70;100859.59;4968273;28;20035;-64
2021/05/09 00:43:31;;;;;;;28.60;7.13;;;;;;;21.37;64.87;100858.91;4968991;28;20082;-63
2021/05/09 00:45:58;;;;;;;23.40;7.13;;;;;;;21.43;64.96;100860.53;4968419;28;20565;-64
2021/05/09 00:48:25;;;;;;;17.42;5.88;;;;;;;21.46;64.99;100869.38;4968988;28;20093;-64
2021/05/09 00:50:52;;;;;;;18.50;5.75;;;;;;;21.46;65.01;100864.00;4967355;28;20077;-64
2021/05/09 00:53:24;;;;;;;19.00;6.43;;;;;;;21.40;65.08;100864.16;4975689;28;20082;-64
2021/05/09 00:55:52;;;;;;;13.32;5.47;;;;;;;21.37;65.06;100858.91;4965211;28;20042;-64
2021/05/09 00:58:21;;;;;;;20.50;6.47;;;;;;;21.35;65.33;100871.47;4967516;28;20089;-64
2021/05/09 01:00:50;;;;;;;18.00;5.95;;;;;;;21.34;65.33;100869.72;4968879;28;20047;-64
2021/05/09 01:03:20;;;;;;;11.45;5.57;;;;;;;21.33;65.67;100870.63;4968350;28;20050;-64
2021/05/09 01:05:47;;;;;;;24.75;6.07;;;;;;;21.23;65.87;100877.19;4969499;28;20460;-64
2021/05/09 01:08:14;;;;;;;21.25;6.60;;;;;;;21.19;65.87;100871.94;4967302;28;20522;-64
2021/05/09 01:10:42;;;;;;;20.58;6.10;;;;;;;21.13;66.05;100872.97;4968523;28;20454;-64
2021/05/09 01:13:10;;;;;;;22.52;6.47;;;;;;;21.08;66.53;100883.78;4967186;28;20073;-64
2021/05/09 01:15:38;;;;;;;25.00;5.78;;;;;;;21.12;66.54;100875.69;4969050;28;20105;-64
2021/05/09 01:18:05;;;;;;;22.80;5.97;;;;;;;21.17;66.33;100871.09;4968235;28;20397;-65
2021/05/09 01:20:35;;;;;;;14.70;5.60;;;;;;;21.23;66.36;100889.72;4969041;28;20065;-64
2021/05/09 01:23:03;;;;;;;20.73;5.80;;;;;;;21.21;66.55;100888.88;4967823;28;20066;-64
2021/05/09 01:25:30;;;;;;;17.75;6.20;;;;;;;21.19;66.35;100894.31;4968041;28;20130;-63
2021/05/09 01:27:58;;;;;;;20.20;5.95;;;;;;;21.16;66.87;100880.06;4968562;28;20054;-65
2021/05/09 01:30:26;;;;;;;18.35;6.45;;;;;;;21.17;67.01;100884.50;4968574;28;20134;-63
2021/05/09 01:32:53;;;;;;;18.35;5.78;;;;;;;21.11;67.29;100880.16;4969435;28;20045;-65
2021/05/09 01:35:20;;;;;;;23.25;7.25;;;;;;;21.13;67.58;100885.50;4967098;28;20047;-64
2021/05/09 01:37:48;;;;;;;19.08;6.38;;;;;;;21.11;67.66;100884.66;4968643;28;20133;-64
2021/05/09 01:40:16;;;;;;;24.13;7.47;;;;;;;21.07;67.72;100883.81;4967915;28;20117;-64
2021/05/09 01:42:43;;;;;;;19.30;6.32;;;;;;;21.08;67.89;100885.59;4968492;28;20038;-64
2021/05/09 01:45:11;;;;;;;19.45;7.03;;;;;;;21.04;68.34;100886.59;4967838;28;20461;-64
2021/05/09 01:47:39;;;;;;;19.95;6.35;;;;;;;21.01;68.32;100882.19;4968720;28;20491;-64
2021/05/09 01:50:11;;;;;;;23.60;6.50;;;;;;;21.04;68.16;100891.97;4966997;28;20069;-64
2021/05/09 01:52:39;;;;;;;24.58;6.68;;;;;;;21.01;68.26;100886.66;4968927;28;20130;-64
2021/05/09 01:55:11;;;;;;;18.90;6.15;;;;;;;21.04;68.10;100891.97;4967433;28;20069;-63
2021/05/09 01:57:39;;;;;;;21.88;7.03;;;;;;;21.01;67.92;100886.66;4967726;28;20055;-64
2021/05/09 02:00:10;;;;;;;21.40;6.68;;;;;;;20.95;68.00;100879.66;4966848;28;20054;-64
2021/05/09 02:02:37;;;;;;;24.55;6.75;;;;;;;20.96;68.11;100888.59;4968186;28;20129;-64
2021/05/09 02:05:05;;;;;;;17.05;6.80;;;;;;;20.97;68.20;100883.19;4968104;28;20038;-64
2021/05/09 02:07:32;;;;;;;16.05;6.15;;;;;;;20.95;68.05;100889.50;4968865;28;20454;-64
2021/05/09 02:10:00;;;;;;;17.13;7.13;;;;;;;20.94;68.05;100898.47;4971436;28;20039;-65
2021/05/09 02:12:28;;;;;;;23.20;6.90;;;;;;;20.89;68.24;100889.66;4971097;28;20137;-64
2021/05/09 02:14:55;;;;;;;16.92;6.72;;;;;;;20.88;68.04;100894.13;4972444;28;20051;-64
2021/05/09 02:17:23;;;;;;;15.70;5.68;;;;;;;20.91;67.76;100894.09;4970708;28;20403;-63
2021/05/09 02:19:50;;;;;;;18.67;6.00;;;;;;;20.90;67.80;100904.84;4972099;28;20047;-64
2021/05/09 02:22:17;;;;;;;21.33;6.28;;;;;;;20.84;67.91;100910.38;4971289;28;20043;-64
2021/05/09 02:24:44;;;;;;;17.10;6.13;;;;;;;20.82;67.76;100902.34;4972206;28;20053;-64
2021/05/09 02:27:12;;;;;;;15.90;5.97;;;;;;;20.81;67.58;100908.63;4968737;28;20046;-64
2021/05/09 02:29:40;;;;;;;22.65;7.30;;;;;;;20.77;67.86;100906.06;4971136;28;20537;-65
2021/05/09 02:32:08;;;;;;;17.13;6.10;;;;;;;20.75;67.68;100921.31;4970636;28;20380;-65
2021/05/09 02:34:35;;;;;;;20.50;5.75;;;;;;;20.70;67.75;100921.44;4972041;28;20125;-65
2021/05/09 02:37:04;;;;;;;18.13;6.40;;;;;;;20.71;67.69;100915.16;4971522;28;20072;-64
2021/05/09 02:39:31;;;;;;;11.60;6.00;;;;;;;20.70;67.58;100913.38;4970930;28;20105;-64
2021/05/09 02:41:58;;;;;;;19.90;6.88;;;;;;;20.68;67.71;100916.09;4972259;28;20439;-65
2021/05/09 02:44:25;;;;;;;16.60;6.50;;;;;;;20.64;67.99;100916.22;4969984;28;20070;-64
2021/05/09 02:46:54;;;;;;;16.83;6.53;;;;;;;20.66;67.75;100931.38;4971806;28;20063;-64
2021/05/09 02:49:21;;;;;;;17.23;5.82;;;;;;;20.68;68.01;100924.13;4969819;28;20503;-64
2021/05/09 02:51:48;;;;;;;19.13;5.78;;;;;;;20.72;67.90;100933.00;4971038;28;20426;-64
2021/05/09 02:54:15;;;;;;;17.15;5.88;;;;;;;20.71;67.86;100928.56;4970618;28;20138;-64
2021/05/09 02:56:42;;;;;;;15.68;5.88;;;;;;;20.72;68.05;100932.13;4971858;28;20050;-65
2021/05/09 02:59:09;;;;;;;15.77;5.28;;;;;;;20.73;67.92;100936.59;4969381;28;20078;-64
2021/05/09 03:01:36;;;;;;;14.98;6.05;;;;;;;20.67;68.06;100942.97;4971486;28;20122;-65
2021/05/09 03:04:05;;;;;;;15.18;5.80;;;;;;;20.65;68.22;100937.66;4970755;28;20407;-65
2021/05/09 03:06:32;;;;;;;20.38;5.72;;;;;;;20.62;68.35;100937.69;4965046;28;20034;-64
2021/05/09 03:09:00;;;;;;;18.80;6.10;;;;;;;20.65;68.33;100939.44;4970564;28;20074;-64
2021/05/09 03:11:28;;;;;;;17.10;5.85;;;;;;;20.64;68.34;100935.00;4971847;28;20138;-65
2021/05/09 03:13:56;;;;;;;17.02;6.20;;;;;;;20.63;68.15;100934.09;4971069;28;20047;-64
2021/05/09 03:16:23;;;;;;;16.95;6.60;;;;;;;20.60;68.12;100928.81;4970321;28;20107;-65
2021/05/09 03:18:50;;;;;;;15.35;5.65;;;;;;;20.51;68.41;100923.66;4970494;28;20416;-64
2021/05/09 03:21:21;;;;;;;14.93;4.90;;;;;;;20.52;68.46;100927.22;4968740;28;20063;-64
2021/05/09 03:23:48;;;;;;;15.63;5.28;;;;;;;20.54;68.04;100936.13;4971502;28;20042;-65
2021/05/09 03:26:15;;;;;;;11.13;4.38;;;;;;;20.57;67.71;100934.25;4969774;28;20130;-64
2021/05/09 03:28:43;;;;;;;15.50;5.28;;;;;;;20.60;67.33;100934.19;4970888;28;20129;-64
2021/05/09 03:31:10;;;;;;;14.63;6.65;;;;;;;20.60;67.48;100950.28;4970183;28;20070;-64
2021/05/09 03:33:37;;;;;;;17.75;4.90;;;;;;;20.62;67.38;100944.84;4971408;28;20396;-64
2021/05/09 03:36:04;;;;;;;15.55;4.50;;;;;;;20.68;67.05;100953.66;4969678;28;20046;-64
2021/05/09 03:38:33;;;;;;;13.32;4.68;;;;;;;20.76;66.72;100952.59;4968764;28;20110;-63
2021/05/09 03:41:00;;;;;;;12.88;5.35;;;;;;;20.84;66.75;100964.03;4969983;28;20070;-65
2021/05/09 03:43:27;;;;;;;16.35;5.35;;;;;;;20.89;66.57;100962.13;4971011;28;20047;-64
2021/05/09 03:45:55;;;;;;;15.82;4.60;;;;;;;20.93;66.74;100974.56;4970435;28;20062;-64
2021/05/09 03:48:22;;;;;;;13.13;5.20;;;;;;;21.06;66.30;100981.41;4969565;28;20130;-64
2021/05/09 03:50:49;;;;;;;14.00;4.15;;;;;;;21.08;66.30;100979.56;4970822;28;20182;-64
2021/05/09 03:53:16;;;;;;;12.30;4.20;;;;;;;21.18;66.47;100988.31;4969447;28;20526;-64
2021/05/09 03:55:44;;;;;;;13.07;4.55;;;;;;;21.34;66.37;100987.00;4969621;28;20509;-64
2021/05/09 03:58:12;;;;;;;16.00;3.97;;;;;;;21.49;66.03;100997.38;4969067;28;20039;-64
2021/05/09 04:00:39;;;;;;;18.27;4.22;;;;;;;21.60;65.56;101005.16;4969320;28;20061;-64
2021/05/09 04:03:19;;;;;;;14.25;3.90;;;;;;;21.74;65.37;101003.00;4968838;28;20110;-64
2021/05/09 04:05:47;;;;;;;14.05;4.00;;;;;;;21.85;64.99;101004.50;4970601;28;20341;-64
2021/05/09 04:08:15;;;;;;;13.57;3.72;;;;;;;22.07;64.69;101012.88;4967541;28;20054;-65
2021/05/09 04:10:42;;;;;;;12.15;3.38;;;;;;;;;;4969814;28;20047;-64
2021/05/09 04:13:10;;;;;;;14.85;3.70;;;;;;;22.34;64.05;101016.59;4969148;28;20545;-64
2021/05/09 04:15:37;;;;;;;11.32;4.20;;;;;;;22.51;63.54;101008.91;4968819;28;20066;-65
2021/05/09 04:18:05;;;;;;;8.73;3.38;;;;;;;22.68;62.77;101021.88;4968908;28;20113;-65
2021/05/09 04:20:33;;;;;;;12.75;3.25;;;;;;;22.87;62.23;101027.59;4968765;28;20047;-65
2021/05/09 04:23:14;;;;;;;9.55;2.85;;;;;;;22.96;61.25;101028.22;4969565;28;20133;-65
2021/05/09 04:25:43;;;;;;;8.35;3.38;;;;;;;23.04;61.19;101028.84;4966053;28;20197;-65
2021/05/09 04:28:11;;;;;;;10.18;3.47;;;;;;;23.17;60.87;101026.63;4968470;28;20062;-65
2021/05/09 04:30:38;;;;;;;12.80;3.53;;;;;;;23.32;60.87;101034.22;4968488;28;20448;-64
2021/05/09 04:33:06;;;;;;;11.02;2.90;;;;;;;23.47;60.46;101030.19;4967871;28;20073;-65
2021/05/09 04:35:35;;;;;;;10.25;3.03;;;;;;;23.56;60.03;101037.97;4970148;28;20043;-65
2021/05/09 04:38:03;;;;;;;8.02;2.97;;;;;;;23.72;59.71;101036.50;4969303;28;20109;-65
2021/05/09 04:40:30;;;;;;;10.20;3.80;;;;;;;23.80;59.78;101049.72;4969466;28;20558;-64
2021/05/09 04:43:06;;;;;;;11.40;3.53;;;;;;;24.01;59.29;101046.31;4969886;28;20074;-66
2021/05/09 04:45:35;;;;;;;11.02;3.50;;;;;;;24.09;59.02;101052.28;4969028;28;20041;-65
2021/05/09 04:48:03;;;;;;;10.32;3.47;;;;;;;24.20;58.21;101057.34;4968918;28;20066;-65
2021/05/09 04:50:30;;;;;;;12.73;3.05;;;;;;;24.35;57.89;101058.63;4969402;28;20122;-64
2021/05/09 04:52:57;;;;;;;12.38;3.42;;;;;;;24.53;57.53;101057.94;4968921;28;21775;-65
2021/05/09 04:55:24;;;;;;;14.48;3.00;;;;;;;24.68;56.65;101060.03;4967988;28;20134;-65
2021/05/09 04:57:51;;;;;;;14.25;3.47;;;;;;;24.80;56.25;101062.28;4969351;28;20053;-65
2021/05/09 05:00:19;;;;;;;9.88;3.08;;;;;;;24.97;56.13;101064.34;4967186;28;20113;-65
2021/05/09 05:02:49;;;;;;;14.02;3.65;;;;;;;25.20;55.65;101066.19;4969426;28;20035;-65
2021/05/09 05:05:16;;;;;;;10.30;2.83;;;;;;;25.37;55.25;101066.34;4967382;28;20129;-64
2021/05/09 05:07:43;;;;;;;10.23;2.75;;;;;;;25.60;54.39;101071.72;4969420;28;20035;-65
2021/05/09 05:10:11;;;;;;;10.85;3.17;;;;;;;25.81;53.48;101072.66;4968236;28;20035;-65
2021/05/09 05:12:38;;;;;;;10.20;2.83;;;;;;;25.97;53.00;101072.88;4969002;28;20638;-65
2021/05/09 05:15:07;;;;;;;9.82;2.50;;;;;;;26.07;51.96;101074.25;4967586;28;20049;-65
2021/05/09 05:17:34;;;;;;;13.10;2.95;;;;;;;26.20;51.39;101080.88;4969232;28;20118;-65
2021/05/09 05:20:02;;;;;;;13.50;3.30;;;;;;;26.15;51.43;101081.09;4966047;28;20117;-65
2021/05/09 05:22:29;;;;;;;9.75;2.92;;;;;;;26.24;50.95;101093.38;4967791;28;20047;-65
2021/05/09 05:24:56;;;;;;;9.57;2.53;;;;;;;26.30;50.72;101094.94;4967814;28;20041;-65
2021/05/09 05:27:24;;;;;;;9.18;2.42;;;;;;;26.44;50.14;101097.91;4967012;28;20549;-65
2021/05/09 05:29:51;;;;;;;13.45;2.95;;;;;;;26.60;50.17;101107.09;4968101;28;20035;-64
2021/05/09 05:32:19;;;;;;;11.48;2.88;;;;;;;26.69;49.74;101109.41;4967987;28;20039;-65
2021/05/09 05:34:46;;;;;;;11.00;2.78;;;;;;;26.77;49.83;101106.34;4968415;28;20502;-64
2021/05/09 05:37:15;;;;;;;11.57;2.90;;;;;;;27.11;49.50;101111.09;4966968;28;20114;-65
2021/05/09 05:39:42;;;;;;;10.88;2.60;;;;;;;27.28;49.15;101120.19;4968433;28;20042;-64
2021/05/09 05:42:09;;;;;;;12.35;2.78;;;;;;;27.57;48.73;101117.94;4967015;28;20049;-65
2021/05/09 05:44:38;;;;;;;13.13;2.85;;;;;;;27.66;48.13;101121.06;4972520;28;20071;-64
2021/05/09 05:47:05;;;;;;;10.93;2.60;;;;;;;27.77;47.76;101126.81;4971231;28;20063;-65
2021/05/09 05:49:32;;;;;;;11.07;2.50;;;;;;;27.90;47.21;101118.94;4971818;28;20050;-65
2021/05/09 05:51:59;;;;;;;9.50;3.13;;;;;;;27.89;46.69;101135.34;4970013;28;20070;-66
2021/05/09 05:54:28;;;;;;;9.20;2.22;;;;;;;27.92;46.05;101127.00;4951708;28;20095;-65
2021/05/09 05:56:55;;;;;;;17.63;3.00;;;;;;;27.69;46.15;101125.47;4948282;28;20054;-66
2021/05/09 05:59:23;;;;;;;9.07;2.67;;;;;;;27.68;46.15;101118.28;4947492;28;20506;-65
2021/05/09 06:01:50;;;;;;;11.95;2.72;;;;;;;27.45;46.06;101122.06;4976342;28;20419;-65
2021/05/09 06:04:17;;;;;;;12.98;2.47;;;;;;;27.42;45.91;101133.09;4970391;28;20042;-65
2021/05/09 06:06:44;;;;;;;11.23;2.53;;;;;;;27.41;45.45;101131.31;4955425;28;20028;-65
2021/05/09 06:09:11;;;;;;;11.57;2.95;;;;;;;27.61;45.39;101127.66;4950032;28;20432;-65
2021/05/09 06:11:40;;;;;;;9.85;3.55;;;;;;;27.80;45.18;101125.81;4952443;28;20043;-65
2021/05/09 06:14:07;;;;;;;12.88;2.88;;;;;;;28.13;44.73;101147.66;4951573;28;20114;-65
2021/05/09 06:16:34;;;;;;;11.30;2.70;;;;;;;28.10;44.60;101154.09;4945471;28;20153;-65
2021/05/09 06:19:01;;;;;;;9.48;3.30;;;;;;;28.22;44.97;101160.81;4975653;28;20079;-66
2021/05/09 06:21:28;;;;;;;11.10;3.58;;;;;;;28.50;44.49;101160.22;4955788;28;20043;-65
2021/05/09 06:23:56;;;;;;;8.50;2.40;;;;;;;28.57;43.98;101155.34;4951421;28;20035;-65
2021/05/09 06:26:23;;;;;;;14.23;2.90;;;;;;;28.65;43.96;101162.16;4957566;28;20051;-65
2021/05/09 06:28:53;;;;;;;9.55;2.70;;;;;;;28.44;44.04;101166.00;4970747;28;20059;-65
2021/05/09 06:31:20;;;;;;;12.95;2.97;;;;;;;28.40;44.04;101184.31;4969213;28;20053;-65
2021/05/09 06:33:48;;;;;;;11.73;2.88;;;;;;;28.43;43.96;101175.97;4958738;28;20432;-65
2021/05/09 06:36:16;;;;;;;13.07;2.65;;;;;;;28.47;44.05;101191.19;4945604;28;20039;-64
2021/05/09 06:38:43;;;;;;;10.73;2.78;;;;;;;28.34;43.95;101186.47;4947508;28;20043;-65
2021/05/09 06:41:11;;;;;;;10.52;2.70;;;;;;;28.24;44.08;101187.88;4950272;28;20094;-65
2021/05/09 06:43:38;;;;;;;11.32;3.08;;;;;;;28.17;44.21;101198.16;4951992;28;20559;-65
2021/05/09 06:46:07;;;;;;;9.90;2.90;;;;;;;28.10;44.24;101196.66;4950236;28;20122;-65
2021/05/09 06:48:34;;;;;;;10.35;2.63;;;;;;;28.24;44.24;101206.88;4950212;28;20047;-65
2021/05/09 06:51:03;;;;;;;14.90;2.67;;;;;;;28.50;43.73;101207.31;4949105;28;20043;-66
2021/05/09 06:53:30;;;;;;;9.55;2.65;;;;;;;28.48;43.31;101216.50;4952617;28;20134;-65
2021/05/09 06:55:58;;;;;;;8.27;3.28;;;;;;;28.52;43.43;101218.09;4956791;28;20035;-65
2021/05/09 06:58:26;;;;;;;8.68;2.55;;;;;;;28.43;42.90;101213.13;4950605;28;20053;-66
2021/05/09 07:00:53;;;;;;;8.43;2.72;;;;;;;28.51;43.44;101209.06;4968976;28;20236;-66
2021/05/09 07:03:21;;;;;;;8.77;2.40;;;;;;;28.61;42.67;101217.63;4969913;28;20054;-66
2021/05/09 07:05:48;;;;;;;9.45;2.40;;;;;;;28.70;42.56;101238.00;4972632;28;20074;-65
2021/05/09 07:08:16;;;;;;;8.52;2.53;;;;;;;28.75;42.25;101228.66;4969153;28;20047;-65
2021/05/09 07:10:43;;;;;;;12.25;3.20;;;;;;;28.79;41.80;101240.28;4953138;28;20043;-66
2021/05/09 07:13:10;;;;;;;11.80;2.78;;;;;;;28.85;41.95;101238.13;4947439;28;20109;-66
2021/05/09 07:15:39;;;;;;;14.98;3.35;;;;;;;29.16;41.45;101241.91;4959610;28;20476;-65
2021/05/09 07:18:10;;;;;;;11.60;3.25;;;;;;;29.27;40.86;101247.66;4968518;28;20050;-65
2021/05/09 07:20:41;;;;;;;8.88;2.67;;;;;;;29.38;40.75;101249.81;4968187;28;20451;-66
2021/05/09 07:23:10;;;;;;;14.65;3.67;;;;;;;29.79;40.65;101245.69;4970194;28;20043;-66
2021/05/09 07:25:38;;;;;;;8.02;2.47;;;;;;;30.07;39.97;101258.63;4971058;28;20047;-66
2021/05/09 07:28:07;;;;;;;11.82;2.47;;;;;;;30.15;39.33;101248.16;4968046;28;20074;-64
2021/05/09 07:30:34;;;;;;;14.57;3.33;;;;;;;30.09;39.19;101257.56;4968184;28;20110;-64
2021/05/09 07:33:02;;;;;;;16.88;3.28;;;;;;;30.20;39.03;101237.88;4966572;28;20070;-64
2021/05/09 07:35:29;;;;;;;7.00;2.28;;;;;;;30.25;38.66;101265.75;4946735;28;20067;-64
2021/05/09 07:38:01;;;;;;;11.95;3.40;;;;;;;30.19;39.20;101270.69;4959327;28;20122;-63
2021/05/09 07:40:28;;;;;;;13.65;3.58;;;;;;;30.34;39.32;101269.75;4964132;28;20126;-64
2021/05/09 07:42:55;;;;;;;8.77;3.08;;;;;;;30.45;39.08;101273.63;4954578;28;20135;-64
2021/05/09 07:45:23;;;;;;;14.32;3.08;;;;;;;30.63;39.24;101271.69;4948271;28;20079;-64
2021/05/09 07:47:51;;;;;;;19.10;3.53;;;;;;;30.88;39.02;101274.69;4947086;28;20035;-64
2021/05/09 07:50:21;;;;;;;13.35;3.50;;;;;;;31.02;38.39;101283.88;4946776;28;20090;-64
2021/05/09 07:52:49;;;;;;;8.75;2.75;;;;;;;30.80;37.83;101287.03;4949220;28;20043;-64
2021/05/09 07:55:18;;;;;;;10.35;3.47;;;;;;;30.77;38.33;101285.38;4946562;28;20039;-64
2021/05/09 07:57:45;;;;;;;14.32;3.53;;;;;;;30.79;38.40;101279.81;4942501;28;20042;-65
2021/05/09 08:00:15;;;;;;;13.30;3.30;;;;;;;30.43;38.87;101282.88;4955391;28;20071;-65
2021/05/09 08:02:42;;;;;;;11.82;3.70;;;;;;;30.28;39.11;101287.34;4950875;28;20050;-65
2021/05/09 08:05:11;;;;;;;12.35;3.95;;;;;;;30.00;39.47;101266.25;4948051;28;20440;-64
2021/05/09 08:07:49;;;;;;;13.30;3.45;;;;;;;30.03;39.80;101279.72;4949175;28;20583;-64
2021/05/09 08:10:17;;;;;;;9.18;3.63;;;;;;;29.93;40.03;101277.63;4948107;28;20059;-64
2021/05/09 08:12:44;;;;;;;17.63;4.00;;;;;;;29.73;40.40;101292.31;4957428;28;20122;-65
2021/05/09 08:15:13;;;;;;;12.15;3.83;;;;;;;29.85;40.66;101288.03;4967911;28;20046;-65
2021/05/09 08:17:41;;;;;;;12.25;3.83;;;;;;;29.96;40.25;101281.03;4958330;28;20051;-64
2021/05/09 08:20:10;;;;;;;9.93;3.45;;;;;;;30.08;40.12;101290.34;4945478;28;20040;-65
2021/05/09 08:22:37;;;;;;;11.85;3.75;;;;;;;30.12;39.97;101291.06;4950191;28;20122;-64
2021/05/09 08:25:06;;;;;;;10.27;3.53;;;;;;;30.26;39.85;101291.16;4947483;28;20118;-65
2021/05/09 08:27:37;;;;;;;13.80;3.83;;;;;;;30.42;39.43;101294.72;4947289;28;20130;-64
2021/05/09 08:30:06;;;;;;;17.42;4.40;;;;;;;30.59;39.28;101297.34;4947079;28;20126;-65
2021/05/09 08:32:33;;;;;;;14.43;3.22;;;;;;;30.60;38.88;101303.69;4949978;28;20132;-64
2021/05/09 08:35:02;;;;;;;11.48;3.33;;;;;;;30.65;39.49;101301.59;4945768;28;20129;-65
2021/05/09 08:37:30;;;;;;;9.57;3.22;;;;;;;30.87;39.42;101307.50;4968412;28;20403;-65
2021/05/09 08:39:57;;;;;;;12.98;4.00;;;;;;;31.12;38.97;101306.91;4972690;28;20049;-65
2021/05/09 08:42:24;;;;;;;15.98;3.08;;;;;;;31.21;38.41;101303.63;4954170;28;20868;-64
2021/05/09 08:44:54;;;;;;;8.98;2.78;;;;;;;31.25;38.16;101308.81;4948591;28;20130;-65
2021/05/09 08:47:22;;;;;;;13.07;3.10;;;;;;;31.00;38.12;101303.06;4946122;28;20105;-65
2021/05/09 08:49:50;;;;;;;12.27;3.42;;;;;;;30.85;38.71;101307.59;4950523;28;20103;-65
2021/05/09 08:52:19;;;;;;;14.07;2.92;;;;;;;30.92;38.25;101307.25;4947600;28;20131;-65
2021/05/09 08:54:47;;;;;;;12.25;3.53;;;;;;;30.94;38.10;101302.56;4945490;28;20062;-65
2021/05/09 08:57:14;;;;;;;11.27;3.08;;;;;;;30.78;38.10;101281.69;4947976;28;20121;-65
2021/05/09 08:59:43;;;;;;;12.43;3.22;;;;;;;30.82;38.14;101285.97;4949424;28;20492;-66
2021/05/09 09:02:15;;;;;;;12.60;3.15;;;;;;;30.67;38.14;101289.59;4946977;28;20059;-66
2021/05/09 09:04:45;;;;;;;13.85;3.03;;;;;;;30.75;37.89;101290.03;4949396;28;20133;-66
2021/05/09 09:07:12;;;;;;;11.38;3.15;;;;;;;30.78;37.67;101300.78;4945957;28;20039;-67
2021/05/09 09:09:43;;;;;;;12.80;3.75;;;;;;;30.94;37.53;101288.91;4944871;28;20039;-66
2021/05/09 09:12:11;;;;;;;13.73;3.40;;;;;;;31.00;37.49;101294.00;4948157;28;20050;-66
2021/05/09 09:14:53;;;;;;;11.35;2.90;;;;;;;30.72;36.83;101297.53;4947963;28;20067;-66
2021/05/09 09:17:22;;;;;;;9.18;2.60;;;;;;;30.76;35.61;101297.25;4948482;28;21175;-66
2021/05/09 09:20:12;;;;;;;12.88;3.30;;;;;;;30.89;34.55;101284.63;4942297;28;20055;-66
2021/05/09 09:22:55;;;;;;;13.18;3.15;;;;;;;30.89;34.92;101302.84;4965571;28;20058;-66
2021/05/09 09:25:25;;;;;;;11.00;2.83;;;;;;;30.85;35.55;101301.28;4944409;28;20591;-65
2021/05/09 09:27:53;;;;;;;9.88;2.67;;;;;;;31.16;34.92;101301.19;4948956;28;20050;-66
2021/05/09 09:30:23;;;;;;;13.32;3.85;;;;;;;31.36;34.23;101299.09;4947297;28;20051;-66
2021/05/09 09:33:12;;;;;;;8.32;3.17;;;;;;;31.50;33.17;101302.72;4948879;28;20563;-66
2021/05/09 09:35:40;;;;;;;9.60;2.72;;;;;;;31.38;33.39;101313.50;4968792;28;20121;-66
2021/05/09 09:38:27;;;;;;;10.80;3.10;;;;;;;31.33;33.36;101297.41;4950473;28;20058;-66
2021/05/09 09:41:08;;;;;;;8.02;2.88;;;;;;;31.43;33.22;101309.53;4947492;28;20067;-66
2021/05/09 09:43:35;;;;;;;8.13;2.55;;;;;;;31.49;32.90;101308.25;4954292;28;20055;-65
2021/05/09 09:46:03;;;;;;;8.43;3.00;;;;;;;31.56;32.97;101306.91;4948217;28;20048;-67
2021/05/09 09:48:43;;;;;;;9.77;2.97;;;;;;;31.40;32.24;101309.69;4948445;28;20043;-65
2021/05/09 09:51:12;;;;;;;11.68;3.78;;;;;;;31.23;32.16;101305.31;4950177;28;20047;-66
2021/05/09 09:53:42;;;;;;;8.38;2.63;;;;;;;31.18;32.42;101320.19;4939912;28;20048;-66
2021/05/09 09:56:12;;;;;;;8.25;2.22;;;;;;;31.37;32.23;101322.69;4943307;28;20060;-66
2021/05/09 09:59:02;;;;;;;14.32;3.35;;;;;;;31.33;32.62;101321.09;4940121;28;20393;-65
2021/05/09 10:01:31;;;;;;;7.93;2.40;;;;;;;31.49;32.12;101343.75;4960717;28;20066;-66
2021/05/09 10:04:00;;;;;;;12.52;3.03;;;;;;;31.49;31.81;101336.44;4962753;28;20125;-66
2021/05/09 10:06:28;;;;;;;12.00;3.00;;;;;;;31.23;31.82;101339.91;4943503;28;20051;-66
2021/05/09 10:08:58;;;;;;;8.30;2.40;;;;;;;30.88;31.87;101336.53;4953812;28;20053;-66
2021/05/09 10:11:26;;;;;;;8.18;2.50;;;;;;;31.01;32.58;101336.69;4961372;28;20720;-65
2021/05/09 10:13:54;;;;;;;10.73;2.70;;;;;;;31.20;32.53;101343.69;4966760;28;20058;-65
2021/05/09 10:16:23;;;;;;;8.65;2.40;;;;;;;31.07;32.48;101337.22;4966695;28;21886;-65
2021/05/09 10:19:04;;;;;;;9.23;2.58;;;;;;;31.16;32.68;101336.69;4966123;28;20110;-65
2021/05/09 10:21:35;;;;;;;9.43;2.70;;;;;;;31.22;32.46;101347.22;4964567;28;20048;-66
2021/05/09 10:24:12;;;;;;;11.50;2.90;;;;;;;30.96;32.84;101330.63;4966355;28;20042;-66
2021/05/09 10:26:53;;;;;;;11.27;2.72;;;;;;;30.82;32.64;101332.34;4959203;28;20118;-66
2021/05/09 10:29:51;;;;;;;10.38;2.80;;;;;;;30.63;33.48;101338.97;4945535;28;20316;-66
2021/05/09 10:32:48;;;;;;;10.63;2.90;;;;;;;30.62;33.73;101339.94;4956632;28;20035;-65
2021/05/09 10:35:37;;;;;;;11.20;2.22;;;;;;;30.39;33.66;101333.09;4966094;28;20086;-66
2021/05/09 10:38:08;;;;;;;12.95;3.30;;;;;;;30.12;34.63;101330.09;4953668;28;20051;-66
2021/05/09 10:40:38;;;;;;;9.70;3.03;;;;;;;30.35;34.50;101320.56;4968898;28;20126;-65
2021/05/09 10:43:29;;;;;;;11.90;3.30;;;;;;;30.28;34.51;101321.91;4967105;28;20050;-65
2021/05/09 10:45:57;;;;;;;8.75;2.78;;;;;;;30.24;34.39;101320.31;4952915;28;20043;-66
2021/05/09 10:48:33;;;;;;;10.00;2.83;;;;;;;30.32;34.04;101316.19;4967403;28;20070;-66
2021/05/09 10:51:31;;;;;;;9.18;2.60;;;;;;;30.16;34.08;101319.88;4970700;28;20105;-65
2021/05/09 10:54:23;;;;;;;13.07;3.53;;;;;;;30.17;34.16;101322.53;4970987;28;20046;-66
2021/05/09 10:56:52;;;;;;;8.57;2.22;;;;;;;30.23;34.21;101319.44;4970213;28;20046;-66
2021/05/09 10:59:19;;;;;;;59.90;35.83;;;;;;;30.45;33.72;101319.09;4970658;28;20410;-67
2021/05/09 11:02:05;;;;;;;13.27;7.65;;;;;;;30.45;33.83;101319.97;4974627;28;20045;-66
2021/05/09 11:04:47;;;;;;;10.60;3.10;;;;;;;30.73;33.37;101312.91;4965326;28;20045;-66
2021/05/09 11:07:42;;;;;;;10.25;2.35;;;;;;;30.82;33.38;101315.09;4966305;28;20078;-66
2021/05/09 11:10:42;;;;;;;9.90;2.65;;;;;;;31.05;33.61;101308.28;4971775;28;20054;-66
2021/05/09 11:13:09;;;;;;;10.43;3.05;;;;;;;31.32;33.57;101308.41;4966812;28;20051;-68
2021/05/09 11:15:37;;;;;;;12.70;3.20;;;;;;;31.21;34.13;101309.09;4971291;28;20143;-65
2021/05/09 11:18:14;;;;;;;10.63;3.38;;;;;;;31.31;34.10;101299.34;4967033;28;20039;-66
2021/05/09 11:20:52;;;;;;;12.23;3.08;;;;;;;31.20;34.13;101297.31;4971156;28;20051;-66
2021/05/09 11:23:21;;;;;;;8.80;3.10;;;;;;;31.40;33.90;101296.06;4960781;28;20483;-66
2021/05/09 11:25:48;;;;;;;7.90;2.60;;;;;;;31.66;33.42;101287.13;4981643;28;20447;-66
2021/05/09 11:28:15;;;;;;;10.93;3.40;;;;;;;31.79;32.36;101291.78;4970135;28;20047;-66
2021/05/09 11:30:42;;;;;;;9.65;3.60;;;;;;;31.87;32.55;101289.44;4959456;28;20122;-65